Time;durP1;ratioP1;P1;durP2;ratioP2;P2;SDS_P1;SDS_P2;PMS_P1;PMS_P2;Temp;Humidity;BMP_temperature;BMP_pressure;BME280_temperature;BME280_humidity;BME280_pressure;Samples;Min_cycle;Max_cycle;Signal;HPM_P1;HPM_P2
2021/09/15 00:00:20;;;;;;;10.43;9.35;;;20.50;99.90;;;;;;5108981;28;20099;-42
2021/09/15 00:02:45;;;;;;;10.57;9.57;;;20.50;99.90;;;;;;5110266;28;20196;-40
2021/09/15 00:05:11;;;;;;;9.80;8.88;;;20.50;99.90;;;;;;5110484;28;20502;-40
2021/09/15 00:07:36;;;;;;;10.57;9.57;;;20.40;99.90;;;;;;5108912;28;20020;-40
2021/09/15 00:10:03;;;;;;;10.05;9.05;;;20.40;99.90;;;;;;5110156;28;20020;-38
2021/09/15 00:12:29;;;;;;;9.35;8.30;;;20.40;99.90;;;;;;5110979;28;20016;-39
2021/09/15 00:14:54;;;;;;;9.25;8.25;;;20.40;99.90;;;;;;5109676;28;20093;-37
2021/09/15 00:17:20;;;;;;;10.00;8.88;;;20.40;99.90;;;;;;5110181;28;20020;-40
2021/09/15 00:19:45;;;;;;;9.90;8.90;;;20.40;99.90;;;;;;5109742;28;20081;-39
2021/09/15 00:22:11;;;;;;;8.65;7.82;;;20.40;99.90;;;;;;5110284;28;20095;-39
2021/09/15 00:24:36;;;;;;;11.93;9.02;;;20.40;99.90;;;;;;5110566;28;20104;-39
2021/09/15 00:27:02;;;;;;;9.93;8.63;;;20.40;99.90;;;;;;5110152;28;20051;-38
2021/09/15 00:29:28;;;;;;;9.40;8.32;;;20.40;99.90;;;;;;5110313;28;20026;-38
2021/09/15 00:31:53;;;;;;;8.63;7.82;;;20.40;99.90;;;;;;5109830;28;20050;-39
2021/09/15 00:34:19;;;;;;;8.00;7.25;;;20.40;99.90;;;;;;5109698;28;20024;-38
2021/09/15 00:36:47;;;;;;;10.05;8.43;;;20.30;99.90;;;;;;5109940;28;20120;-39
2021/09/15 00:39:16;;;;;;;8.77;7.82;;;20.30;99.90;;;;;;5110310;28;20550;-40
2021/09/15 00:41:48;;;;;;;8.38;7.57;;;20.30;99.90;;;;;;5109887;28;20050;-39
2021/09/15 00:44:14;;;;;;;;;;;20.30;99.90;;;;;;5110622;28;20114;-40
2021/09/15 00:46:40;;;;;;;8.48;7.07;;;20.30;99.90;;;;;;5110176;28;20016;-40
2021/09/15 00:49:08;;;;;;;8.60;7.70;;;20.30;99.90;;;;;;5109569;28;20023;-35
2021/09/15 00:51:36;;;;;;;8.70;7.18;;;20.30;99.90;;;;;;5108418;28;20069;-39
2021/09/15 00:54:04;;;;;;;8.45;7.65;;;20.20;99.90;;;;;;5108515;28;20534;-39
2021/09/15 00:56:29;;;;;;;8.65;7.80;;;20.30;99.90;;;;;;5108783;28;20035;-40
2021/09/15 00:58:55;;;;;;;8.00;7.30;;;20.30;99.90;;;;;;5107748;28;20021;-39
2021/09/15 01:01:20;;;;;;;8.45;7.65;;;20.20;99.90;;;;;;5108612;28;20375;-38
2021/09/15 01:03:46;;;;;;;8.73;7.70;;;20.20;99.90;;;;;;5109455;28;20482;-39
2021/09/15 01:06:14;;;;;;;7.93;7.13;;;20.20;99.90;;;;;;5113134;28;20516;-38
2021/09/15 01:08:41;;;;;;;8.27;7.47;;;20.20;99.90;;;;;;5113354;28;20462;-37
2021/09/15 01:11:08;;;;;;;8.18;7.45;;;20.10;99.90;;;;;;5113486;28;20030;-39
2021/09/15 01:13:37;;;;;;;8.27;7.47;;;20.10;99.90;;;;;;5113059;28;20165;-40
2021/09/15 01:16:09;;;;;;;8.35;7.55;;;20.00;99.90;;;;;;5111692;28;20044;-40
2021/09/15 01:18:35;;;;;;;8.93;7.97;;;20.00;99.90;;;;;;5111812;28;20374;-40
2021/09/15 01:21:04;;;;;;;8.27;7.47;;;20.00;99.90;;;;;;5113167;28;20023;-41
2021/09/15 01:23:29;;;;;;;10.35;8.23;;;20.00;99.90;;;;;;5113807;28;20114;-39
2021/09/15 01:25:55;;;;;;;8.60;7.80;;;19.90;99.90;;;;;;5113657;28;20146;-40
2021/09/15 01:28:20;;;;;;;9.07;8.18;;;19.90;99.90;;;;;;5113319;28;20587;-39
2021/09/15 01:30:46;;;;;;;8.70;7.80;;;19.90;99.90;;;;;;5112165;28;20023;-37
2021/09/15 01:33:14;;;;;;;9.75;8.48;;;19.90;99.90;;;;;;5113950;28;20012;-39
2021/09/15 01:35:41;;;;;;;9.13;8.20;;;19.90;99.90;;;;;;5113344;28;20024;-39
2021/09/15 01:38:07;;;;;;;9.25;8.35;;;19.90;99.90;;;;;;5112704;28;20482;-39
2021/09/15 01:40:33;;;;;;;8.38;7.68;;;19.80;99.90;;;;;;5113447;28;20047;-38
2021/09/15 01:42:58;;;;;;;9.15;8.25;;;19.80;99.90;;;;;;5112737;28;20070;-37
2021/09/15 01:45:24;;;;;;;9.55;8.65;;;19.70;99.90;;;;;;5112785;28;20047;-37
2021/09/15 01:47:49;;;;;;;8.60;7.80;;;19.70;99.90;;;;;;5113000;28;20379;-39
2021/09/15 01:50:15;;;;;;;9.65;8.65;;;19.60;99.90;;;;;;5113697;28;20062;-38
2021/09/15 01:52:41;;;;;;;8.50;7.75;;;19.60;99.90;;;;;;5112904;28;20065;-39
2021/09/15 01:55:08;;;;;;;8.68;7.78;;;19.60;99.90;;;;;;5112333;28;20495;-39
2021/09/15 01:57:36;;;;;;;9.43;8.43;;;19.60;99.90;;;;;;5113471;28;20027;-36
2021/09/15 02:00:05;;;;;;;9.75;8.02;;;19.50;99.90;;;;;;5112313;28;20031;-40
2021/09/15 02:02:30;;;;;;;9.43;8.50;;;19.50;99.90;;;;;;5104770;28;20015;-41
2021/09/15 02:04:56;;;;;;;9.10;8.20;;;19.50;99.90;;;;;;5111078;28;20548;-35
2021/09/15 02:07:24;;;;;;;8.85;8.05;;;19.40;99.90;;;;;;5111069;28;20122;-37
2021/09/15 02:09:50;;;;;;;9.68;8.70;;;19.40;99.90;;;;;;5111880;28;20050;-40
2021/09/15 02:12:15;;;;;;;8.20;7.40;;;19.40;99.90;;;;;;5110390;28;20483;-35
2021/09/15 02:14:41;;;;;;;9.32;7.65;;;19.40;99.90;;;;;;5111222;28;20494;-40
2021/09/15 02:17:06;;;;;;;9.32;8.20;;;19.40;99.90;;;;;;5110199;28;20020;-37
2021/09/15 02:19:33;;;;;;;8.85;8.05;;;19.40;99.90;;;;;;5110976;28;20058;-39
2021/09/15 02:21:59;;;;;;;9.52;8.60;;;19.40;99.90;;;;;;5110488;28;20043;-38
2021/09/15 02:24:24;;;;;;;9.07;8.18;;;19.50;99.90;;;;;;5111649;28;20379;-37
2021/09/15 02:26:50;;;;;;;9.32;8.43;;;19.50;99.90;;;;;;5111031;28;20081;-40
2021/09/15 02:29:15;;;;;;;8.70;7.90;;;19.50;99.90;;;;;;5111962;28;20114;-37
2021/09/15 02:31:44;;;;;;;9.52;8.57;;;19.50;99.90;;;;;;5112070;28;20032;-37
2021/09/15 02:34:09;;;;;;;9.27;8.35;;;19.50;99.90;;;;;;5112050;28;20051;-39
2021/09/15 02:36:35;;;;;;;9.25;8.35;;;19.50;99.90;;;;;;5112690;28;20187;-39
2021/09/15 02:39:00;;;;;;;9.02;7.97;;;19.60;99.90;;;;;;5111995;28;20038;-39
2021/09/15 02:41:26;;;;;;;9.38;8.48;;;19.60;99.90;;;;;;5111991;28;20076;-38
2021/09/15 02:43:51;;;;;;;9.70;8.80;;;19.60;99.90;;;;;;5111628;28;20040;-40
2021/09/15 02:46:17;;;;;;;9.68;8.77;;;19.60;99.90;;;;;;5112646;28;20058;-37
2021/09/15 02:48:42;;;;;;;9.40;8.50;;;19.70;99.90;;;;;;5111139;28;20089;-39
2021/09/15 02:51:08;;;;;;;8.95;8.15;;;19.70;99.90;;;;;;5112620;28;20011;-42
2021/09/15 02:53:33;;;;;;;9.20;8.40;;;19.70;99.90;;;;;;5111997;28;20103;-38
2021/09/15 02:55:59;;;;;;;9.93;8.98;;;19.70;99.90;;;;;;5111660;28;20042;-39
2021/09/15 02:58:24;;;;;;;11.38;9.88;;;19.70;99.90;;;;;;5111980;28;20034;-39
2021/09/15 03:00:50;;;;;;;9.20;8.30;;;19.70;99.90;;;;;;5111311;28;20525;-37
2021/09/15 03:03:15;;;;;;;9.55;8.45;;;19.70;99.90;;;;;;5111862;28;20030;-38
2021/09/15 03:05:41;;;;;;;9.57;8.57;;;19.70;99.90;;;;;;5111723;28;20034;-38
2021/09/15 03:08:06;;;;;;;9.48;8.50;;;19.70;99.90;;;;;;5110915;28;20015;-40
2021/09/15 03:10:32;;;;;;;8.70;7.90;;;19.70;99.90;;;;;;5110919;28;20027;-42
2021/09/15 03:12:57;;;;;;;9.52;8.15;;;19.70;99.90;;;;;;5109348;28;20098;-39
2021/09/15 03:15:23;;;;;;;10.43;8.63;;;19.70;99.90;;;;;;5109787;28;20079;-38
2021/09/15 03:17:49;;;;;;;9.02;8.15;;;19.70;99.90;;;;;;5110029;28;20031;-34
2021/09/15 03:20:14;;;;;;;8.50;7.70;;;19.80;99.90;;;;;;5110435;28;20023;-33
2021/09/15 03:22:40;;;;;;;9.85;8.20;;;19.80;99.90;;;;;;5109629;28;20035;-35
2021/09/15 03:25:07;;;;;;;9.10;8.20;;;19.70;99.90;;;;;;5111049;28;20110;-39
2021/09/15 03:27:33;;;;;;;9.80;8.80;;;19.70;99.90;;;;;;5109734;28;20034;-40
2021/09/15 03:29:58;;;;;;;9.63;8.73;;;19.80;99.90;;;;;;5109951;28;20020;-40
2021/09/15 03:32:24;;;;;;;9.82;8.93;;;19.80;99.90;;;;;;5111280;28;20494;-37
2021/09/15 03:34:52;;;;;;;9.82;8.73;;;19.80;99.90;;;;;;5110505;28;20115;-37
2021/09/15 03:37:17;;;;;;;9.07;8.27;;;19.80;99.90;;;;;;5110794;28;20493;-40
2021/09/15 03:39:43;;;;;;;10.50;8.25;;;19.90;99.90;;;;;;5111009;28;20019;-38
2021/09/15 03:42:08;;;;;;;9.75;8.82;;;19.90;99.90;;;;;;5110849;28;20028;-37
2021/09/15 03:44:34;;;;;;;9.57;8.77;;;19.90;99.90;;;;;;5110388;28;20035;-40
2021/09/15 03:47:02;;;;;;;9.52;8.57;;;19.90;99.90;;;;;;5109788;28;20051;-40
2021/09/15 03:49:28;;;;;;;8.70;7.90;;;19.90;99.90;;;;;;5111200;28;20012;-39
2021/09/15 03:51:53;;;;;;;9.98;8.20;;;19.90;99.90;;;;;;5109885;28;20097;-39
2021/09/15 03:54:19;;;;;;;9.10;8.15;;;19.90;99.90;;;;;;5111422;28;20015;-37
2021/09/15 03:56:47;;;;;;;9.63;8.40;;;19.90;99.90;;;;;;5110244;28;20031;-38
2021/09/15 03:59:13;;;;;;;9.65;8.65;;;19.90;99.90;;;;;;5109936;28;20684;-39
2021/09/15 04:01:38;;;;;;;9.10;8.23;;;19.90;99.90;;;;;;5110812;28;20016;-40
2021/09/15 04:04:04;;;;;;;8.65;7.85;;;19.90;99.90;;;;;;5110463;28;20036;-39
2021/09/15 04:06:30;;;;;;;9.57;8.63;;;19.90;99.90;;;;;;5109406;28;20024;-39
2021/09/15 04:08:55;;;;;;;8.77;7.90;;;19.80;99.90;;;;;;5110599;28;20016;-40
2021/09/15 04:11:21;;;;;;;9.40;7.93;;;19.80;99.90;;;;;;5110269;28;20506;-39
2021/09/15 04:13:46;;;;;;;9.23;8.30;;;19.90;99.90;;;;;;5109484;28;20027;-35
2021/09/15 04:16:12;;;;;;;8.32;7.53;;;19.80;99.90;;;;;;5110619;28;20020;-39
2021/09/15 04:18:37;;;;;;;9.35;7.93;;;19.80;99.90;;;;;;5109883;28;20130;-38
2021/09/15 04:21:03;;;;;;;8.88;8.07;;;19.90;99.90;;;;;;5107586;28;20020;-39
2021/09/15 04:23:33;;;;;;;9.10;8.20;;;19.90;99.90;;;;;;5109180;28;20545;-37
2021/09/15 04:31:27;;;;;;;9.43;8.43;;;19.80;99.90;;;;;;5109860;28;20066;-39
2021/09/15 04:33:54;;;;;;;8.57;7.78;;;19.80;99.90;;;;;;5108761;28;20070;-38
2021/09/15 04:36:20;;;;;;;9.73;8.20;;;19.80;99.90;;;;;;5109902;28;20020;-36
2021/09/15 04:38:47;;;;;;;8.38;7.45;;;19.80;99.90;;;;;;5109267;28;20088;-39
2021/09/15 04:41:13;;;;;;;8.63;7.82;;;19.80;99.90;;;;;;5108655;28;20019;-38
2021/09/15 04:43:38;;;;;;;11.43;8.25;;;19.80;99.90;;;;;;5108206;28;20038;-38
2021/09/15 04:46:04;;;;;;;10.25;8.32;;;19.80;99.90;;;;;;5107883;28;20016;-41
2021/09/15 04:48:30;;;;;;;8.45;7.60;;;19.80;99.90;;;;;;5085557;28;20023;-40
2021/09/15 04:50:56;;;;;;;9.02;7.90;;;19.80;99.90;;;;;;5108157;28;20098;-41
2021/09/15 04:53:22;;;;;;;9.07;7.95;;;19.70;99.90;;;;;;5109783;28;20023;-36
2021/09/15 04:55:47;;;;;;;9.18;8.27;;;19.70;99.90;;;;;;5108804;28;20041;-40
2021/09/15 04:58:13;;;;;;;9.57;8.65;;;19.70;99.90;;;;;;5109753;28;20011;-38
2021/09/15 05:00:38;;;;;;;9.93;8.23;;;19.70;99.90;;;;;;5109950;28;20020;-38
2021/09/15 05:03:04;;;;;;;9.07;8.18;;;19.70;99.90;;;;;;5109377;28;20035;-35
2021/09/15 05:05:30;;;;;;;9.25;8.35;;;19.80;99.90;;;;;;5110252;28;20516;-40
2021/09/15 05:07:55;;;;;;;9.32;8.30;;;19.80;99.90;;;;;;5108845;28;20077;-39
2021/09/15 05:10:24;;;;;;;8.88;8.07;;;19.80;99.90;;;;;;5110256;28;20035;-37
2021/09/15 05:12:52;;;;;;;8.55;7.78;;;19.80;99.90;;;;;;5108890;28;20019;-38
2021/09/15 05:15:17;;;;;;;9.07;8.18;;;19.80;99.90;;;;;;5109252;28;20565;-39
2021/09/15 05:17:46;;;;;;;9.43;8.52;;;19.80;99.90;;;;;;5109560;28;20012;-39
2021/09/15 05:20:16;;;;;;;8.73;7.93;;;19.80;99.90;;;;;;5109900;28;20068;-37
2021/09/15 05:22:49;;;;;;;9.00;8.10;;;19.80;99.90;;;;;;5108886;28;20054;-40
2021/09/15 05:25:16;;;;;;;8.60;7.75;;;19.80;99.90;;;;;;5109474;28;20038;-40
2021/09/15 05:27:43;;;;;;;8.80;7.90;;;19.80;99.90;;;;;;5108418;28;20015;-37
2021/09/15 05:30:11;;;;;;;9.10;8.20;;;19.80;99.90;;;;;;5107711;28;20375;-35
2021/09/15 05:32:37;;;;;;;8.55;7.75;;;19.80;99.90;;;;;;5108430;28;20008;-38
2021/09/15 05:35:07;;;;;;;9.45;8.55;;;19.80;99.90;;;;;;5107497;28;20020;-39
2021/09/15 05:37:33;;;;;;;9.32;7.80;;;19.90;99.90;;;;;;5107751;28;20080;-40
2021/09/15 05:39:59;;;;;;;9.07;8.18;;;19.90;99.90;;;;;;5087123;28;20023;-40
2021/09/15 05:42:25;;;;;;;8.88;7.95;;;19.90;99.90;;;;;;5110041;28;20032;-40
2021/09/15 05:44:51;;;;;;;8.55;7.65;;;19.90;99.90;;;;;;5085621;28;20391;-36
2021/09/15 05:47:16;;;;;;;9.07;7.80;;;19.80;99.90;;;;;;5100335;28;20108;-36
2021/09/15 05:49:42;;;;;;;8.43;7.55;;;19.80;99.90;;;;;;5105970;28;20028;-40
2021/09/15 05:52:09;;;;;;;8.75;7.90;;;19.80;99.90;;;;;;5110263;28;20020;-40
2021/09/15 05:54:36;;;;;;;9.40;8.43;;;19.90;99.90;;;;;;5111823;28;21084;-40
2021/09/15 05:57:02;;;;;;;9.48;8.57;;;19.90;99.90;;;;;;5112461;28;20081;-37
2021/09/15 05:59:28;;;;;;;9.32;7.97;;;19.90;99.90;;;;;;5111597;28;20058;-38
2021/09/15 06:01:53;;;;;;;9.40;8.48;;;19.90;99.90;;;;;;5096421;28;20095;-37
2021/09/15 06:04:19;;;;;;;9.02;8.13;;;19.90;99.90;;;;;;5101358;28;20561;-37
2021/09/15 06:06:44;;;;;;;9.05;8.25;;;19.90;99.90;;;;;;5111942;28;20039;-40
2021/09/15 06:09:10;;;;;;;8.82;7.93;;;19.90;99.90;;;;;;5111666;28;20071;-42
2021/09/15 06:11:35;;;;;;;10.55;8.35;;;19.80;99.90;;;;;;5110423;28;20379;-43
2021/09/15 06:14:01;;;;;;;9.30;8.27;;;19.80;99.90;;;;;;5111009;28;20040;-41
2021/09/15 06:16:27;;;;;;;9.00;8.05;;;19.80;99.90;;;;;;5088369;28;20626;-41
2021/09/15 06:18:52;;;;;;;8.88;8.02;;;19.80;99.90;;;;;;5110267;28;20042;-42
2021/09/15 06:21:19;;;;;;;9.45;8.55;;;19.80;99.90;;;;;;5112387;28;20019;-39
2021/09/15 06:23:44;;;;;;;10.27;8.60;;;19.80;99.90;;;;;;5111616;28;20360;-37
2021/09/15 06:26:11;;;;;;;9.45;8.40;;;19.80;99.90;;;;;;5097463;28;20098;-42
2021/09/15 06:28:36;;;;;;;9.13;8.23;;;19.80;99.90;;;;;;5091481;28;20047;-38
2021/09/15 06:31:04;;;;;;;10.07;8.30;;;19.80;99.90;;;;;;5089720;28;20468;-38
2021/09/15 06:33:30;;;;;;;9.63;8.63;;;19.80;99.90;;;;;;5081944;28;20532;-34
2021/09/15 06:35:56;;;;;;;10.27;9.27;;;19.90;99.90;;;;;;5087282;28;20020;-38
2021/09/15 06:38:21;;;;;;;9.32;8.38;;;19.90;99.90;;;;;;5109137;28;20026;-37
2021/09/15 06:40:47;;;;;;;9.00;8.10;;;20.00;99.90;;;;;;5109494;28;20077;-40
2021/09/15 06:43:12;;;;;;;10.93;9.88;;;20.00;99.90;;;;;;5110752;28;20458;-39
2021/09/15 06:45:38;;;;;;;10.48;9.48;;;20.00;99.90;;;;;;5110758;28;20035;-38
2021/09/15 06:48:04;;;;;;;11.80;9.70;;;20.10;99.90;;;;;;5110187;28;20024;-36
2021/09/15 06:50:30;;;;;;;10.10;9.05;;;20.10;99.90;;;;;;5107985;28;20068;-43
2021/09/15 06:52:56;;;;;;;10.02;9.02;;;20.10;99.90;;;;;;5111524;28;20463;-41
2021/09/15 06:55:23;;;;;;;9.82;8.82;;;20.10;99.90;;;;;;5111256;28;20019;-37
2021/09/15 06:57:50;;;;;;;10.02;9.02;;;20.10;99.90;;;;;;5109163;28;20371;-40
2021/09/15 07:00:18;;;;;;;9.80;8.77;;;20.20;99.90;;;;;;5109916;28;20079;-42
2021/09/15 07:02:45;;;;;;;9.52;8.63;;;20.10;99.90;;;;;;5108980;28;20429;-41
2021/09/15 07:05:11;;;;;;;9.93;8.52;;;20.20;99.90;;;;;;5111471;28;20031;-38
2021/09/15 07:07:46;;;;;;;8.48;7.68;;;20.20;99.90;;;;;;5110615;28;20023;-39
2021/09/15 07:10:11;;;;;;;9.02;8.10;;;20.20;99.90;;;;;;5111750;28;20406;-42
2021/09/15 07:12:40;;;;;;;8.95;8.07;;;20.20;99.90;;;;;;5109562;28;20031;-42
2021/09/15 07:15:08;;;;;;;8.90;8.10;;;20.20;99.90;;;;;;5109556;28;20051;-38
2021/09/15 07:17:33;;;;;;;9.55;8.55;;;20.20;99.90;;;;;;5110606;28;20015;-40
2021/09/15 07:19:59;;;;;;;9.57;8.50;;;20.20;99.90;;;;;;5110976;28;20430;-42
2021/09/15 07:22:25;;;;;;;9.27;8.38;;;20.20;99.90;;;;;;5110529;28;20020;-42
2021/09/15 07:24:51;;;;;;;9.82;8.85;;;20.20;99.90;;;;;;5092031;28;20047;-41
2021/09/15 07:27:17;;;;;;;9.20;8.40;;;20.20;99.90;;;;;;5102930;28;20020;-40
2021/09/15 07:29:43;;;;;;;9.13;8.32;;;20.20;99.90;;;;;;5110471;28;20019;-40
2021/09/15 07:32:09;;;;;;;9.80;8.80;;;20.20;99.90;;;;;;5111236;28;20355;-40
2021/09/15 07:34:34;;;;;;;11.50;9.05;;;20.20;99.90;;;;;;5111402;28;20046;-40
2021/09/15 07:37:00;;;;;;;9.27;8.43;;;20.20;99.90;;;;;;5109739;28;20026;-42
2021/09/15 07:39:25;;;;;;;9.27;8.40;;;20.30;99.90;;;;;;5111048;28;20475;-39
2021/09/15 07:41:51;;;;;;;9.43;8.43;;;20.30;99.90;;;;;;5110133;28;20023;-41
2021/09/15 07:44:16;;;;;;;9.18;8.27;;;20.30;99.90;;;;;;5108799;28;20031;-42
2021/09/15 07:46:42;;;;;;;8.90;8.07;;;20.30;99.90;;;;;;5101041;28;20015;-42
2021/09/15 07:49:07;;;;;;;10.40;9.38;;;20.40;99.90;;;;;;5109808;28;20102;-42
2021/09/15 07:51:36;;;;;;;11.90;10.70;;;20.30;99.90;;;;;;5108828;28;20103;-39
2021/09/15 07:54:02;;;;;;;10.93;9.85;;;20.30;99.90;;;;;;5108678;28;20027;-35
2021/09/15 07:56:27;;;;;;;11.50;9.48;;;20.40;99.90;;;;;;5108710;28;20455;-41
2021/09/15 07:58:53;;;;;;;10.20;9.20;;;20.40;99.90;;;;;;5106904;28;20024;-41
2021/09/15 08:01:22;;;;;;;9.80;8.82;;;20.40;99.90;;;;;;5107851;28;20475;-41
2021/09/15 08:03:48;;;;;;;9.23;8.02;;;20.40;99.90;;;;;;5108284;28;20512;-41
2021/09/15 08:06:14;;;;;;;10.60;8.95;;;20.40;99.90;;;;;;5110312;28;20032;-42
2021/09/15 08:08:39;;;;;;;9.80;8.82;;;20.40;99.90;;;;;;5109248;28;20459;-43
2021/09/15 08:11:07;;;;;;;9.63;8.73;;;20.40;99.90;;;;;;5108736;28;20671;-42
2021/09/15 08:13:33;;;;;;;9.73;8.73;;;20.50;99.90;;;;;;5109348;28;20008;-40
2021/09/15 08:15:58;;;;;;;10.20;9.07;;;20.50;99.90;;;;;;5109199;28;20059;-41
2021/09/15 08:18:24;;;;;;;9.88;8.88;;;20.50;99.90;;;;;;5109988;28;20451;-42
2021/09/15 08:20:49;;;;;;;10.73;9.75;;;20.50;99.90;;;;;;5107399;28;20027;-43
2021/09/15 08:23:19;;;;;;;10.38;9.38;;;20.60;99.90;;;;;;5109922;28;20520;-42
2021/09/15 08:25:45;;;;;;;9.85;8.85;;;20.60;99.90;;;;;;5102204;28;20031;-41
2021/09/15 08:28:11;;;;;;;10.82;9.68;;;20.70;99.90;;;;;;5075112;28;20044;-40
2021/09/15 08:30:37;;;;;;;12.80;10.93;;;20.80;99.90;;;;;;5110053;28;20420;-40
2021/09/15 08:33:03;;;;;;;11.93;10.75;;;20.90;99.90;;;;;;5109249;28;20027;-42
2021/09/15 08:35:30;;;;;;;13.70;12.00;;;20.90;99.90;;;;;;5109983;28;20497;-38
2021/09/15 08:37:56;;;;;;;13.82;12.35;;;21.00;99.90;;;;;;5109336;28;20432;-40
2021/09/15 08:40:22;;;;;;;12.65;11.43;;;21.10;99.90;;;;;;5108828;28;20035;-38
2021/09/15 08:42:48;;;;;;;13.20;11.90;;;21.10;99.90;;;;;;5109495;28;20019;-42
2021/09/15 08:45:16;;;;;;;13.10;11.80;;;21.20;99.90;;;;;;5110076;28;20028;-42
2021/09/15 08:47:47;;;;;;;13.02;11.70;;;21.20;99.90;;;;;;5108831;28;20031;-40
2021/09/15 08:50:15;;;;;;;14.05;12.60;;;21.30;99.90;;;;;;5109023;28;20127;-40
2021/09/15 08:52:44;;;;;;;16.45;14.90;;;21.30;99.90;;;;;;5109245;28;20118;-43
2021/09/15 08:55:10;;;;;;;17.45;14.05;;;21.40;99.90;;;;;;5107379;28;20016;-42
2021/09/15 08:57:37;;;;;;;15.27;13.88;;;21.50;99.90;;;;;;5108016;28;20473;-42
2021/09/15 09:00:05;;;;;;;15.95;14.25;;;21.50;99.90;;;;;;5107118;28;20026;-40
2021/09/15 09:02:36;;;;;;;15.95;13.93;;;21.50;99.90;;;;;;5108703;28;20453;-38
2021/09/15 09:05:03;;;;;;;15.00;13.60;;;21.60;99.90;;;;;;5108306;28;20032;-41
2021/09/15 09:07:31;;;;;;;16.70;15.02;;;21.60;99.90;;;;;;5108237;28;20012;-40
2021/09/15 09:10:02;;;;;;;17.65;15.82;;;21.70;99.90;;;;;;5109165;28;20038;-43
2021/09/15 09:12:31;;;;;;;16.67;15.07;;;21.70;99.90;;;;;;5109298;28;20016;-43
2021/09/15 09:15:13;;;;;;;16.83;15.07;;;21.80;99.90;;;;;;5107623;28;20048;-39
2021/09/15 09:17:42;;;;;;;;;;;21.90;99.90;;;;;;5089502;28;20019;-40
2021/09/15 09:20:23;;;;;;;17.33;15.52;;;21.90;99.90;;;;;;5107646;28;19904;-43
2021/09/15 09:22:59;;;;;;;15.95;14.45;;;22.00;99.90;;;;;;5087738;28;20099;-41
2021/09/15 09:25:26;;;;;;;19.15;16.58;;;22.00;99.90;;;;;;5111142;28;20842;-40
2021/09/15 09:27:52;;;;;;;19.73;17.65;;;22.00;99.90;;;;;;5090379;28;20023;-39
2021/09/15 09:30:36;;;;;;;19.70;17.70;;;22.00;99.90;;;;;;5112602;28;20027;-42
2021/09/15 09:33:04;;;;;;;20.13;18.05;;;22.10;99.90;;;;;;5090687;28;20022;-40
2021/09/15 09:35:41;;;;;;;19.55;17.58;;;22.20;99.90;;;;;;5113184;28;20103;-41
2021/09/15 09:38:17;;;;;;;21.70;19.50;;;22.30;99.90;;;;;;5098817;28;20035;-40
2021/09/15 09:40:59;;;;;;;24.42;20.23;;;22.20;99.90;;;;;;5112775;28;20019;-39
2021/09/15 09:43:31;;;;;;;22.75;20.35;;;22.20;99.90;;;;;;5091018;28;20023;-41
2021/09/15 09:45:57;;;;;;;23.10;20.42;;;22.10;99.90;;;;;;5112527;28;20298;-40
2021/09/15 09:48:32;;;;;;;22.42;20.13;;;22.10;99.90;;;;;;5112930;28;20026;-40
2021/09/15 09:50:58;;;;;;;20.98;18.77;;;22.10;99.90;;;;;;5111482;28;20073;-41
2021/09/15 09:53:24;;;;;;;23.73;21.27;;;22.00;99.90;;;;;;5113585;28;20023;-40
2021/09/15 09:55:50;;;;;;;30.90;27.20;;;22.00;99.90;;;;;;5112674;28;20111;-41
2021/09/15 09:58:25;;;;;;;28.83;25.77;;;22.00;99.90;;;;;;5112853;28;20095;-41
2021/09/15 10:00:55;;;;;;;27.23;23.83;;;22.00;99.90;;;;;;5112179;28;20016;-41
2021/09/15 10:03:21;;;;;;;27.15;24.23;;;22.00;99.90;;;;;;5111067;28;20044;-45
2021/09/15 10:05:49;;;;;;;23.75;20.88;;;22.00;99.90;;;;;;5111123;28;20019;-42
2021/09/15 10:08:18;;;;;;;28.48;23.92;;;22.10;99.90;;;;;;5096634;28;20016;-41
2021/09/15 10:10:47;;;;;;;27.17;24.27;;;22.10;99.90;;;;;;5110981;28;20077;-39
2021/09/15 10:13:13;;;;;;;25.83;22.90;;;22.10;99.90;;;;;;5112285;28;20150;-40
2021/09/15 10:15:45;;;;;;;27.92;24.63;;;22.20;99.90;;;;;;5110510;28;20194;-42
2021/09/15 10:18:12;;;;;;;27.92;23.35;;;22.20;99.90;;;;;;5110712;28;20023;-38
2021/09/15 10:20:38;;;;;;;29.42;23.83;;;22.20;99.90;;;;;;5112267;28;20023;-42
2021/09/15 10:23:47;;;;;;;30.33;24.50;;;22.20;99.90;;;;;;5112570;28;20083;-41
2021/09/15 10:26:36;;;;;;;27.40;23.98;;;22.20;99.90;;;;;;5071068;28;20045;-42
2021/09/15 10:29:28;;;;;;;24.23;21.08;;;22.20;99.90;;;;;;5107999;28;20478;-36
2021/09/15 10:32:01;;;;;;;31.73;27.20;;;22.30;99.90;;;;;;5111301;28;20431;-39
2021/09/15 10:34:39;;;;;;;35.97;30.67;;;22.30;99.90;;;;;;5111591;28;20031;-41
2021/09/15 10:37:05;;;;;;;31.17;26.00;;;22.30;99.90;;;;;;5096666;28;20766;-41
2021/09/15 10:39:31;;;;;;;39.20;32.30;;;22.30;99.90;;;;;;5101584;28;20028;-42
2021/09/15 10:41:58;;;;;;;36.13;30.30;;;22.20;99.90;;;;;;5111695;28;20459;-41
2021/09/15 10:44:24;;;;;;;38.17;30.92;;;22.10;99.90;;;;;;5111526;28;20421;-42
2021/09/15 10:47:16;;;;;;;32.70;27.42;;;22.00;99.90;;;;;;5110109;28;20572;-40
2021/09/15 10:49:44;;;;;;;27.90;24.20;;;21.90;99.90;;;;;;5108168;28;20110;-41
2021/09/15 10:52:16;;;;;;;33.42;26.77;;;21.80;99.90;;;;;;5095891;28;20494;-41
2021/09/15 10:54:47;;;;;;;31.92;26.95;;;21.80;99.90;;;;;;5104143;28;20135;-42
2021/09/15 10:57:16;;;;;;;30.80;24.85;;;21.80;99.90;;;;;;5081326;28;20016;-42
2021/09/15 11:00:21;;;;;;;27.30;20.85;;;21.90;99.90;;;;;;5106271;28;20366;-42
2021/09/15 11:02:50;;;;;;;27.55;23.33;;;22.10;99.90;;;;;;5070326;28;20028;-41
2021/09/15 11:05:25;;;;;;;23.60;19.90;;;22.30;99.90;;;;;;5108567;28;20031;-40
2021/09/15 11:07:50;;;;;;;27.85;22.90;;;22.50;99.90;;;;;;5110180;28;20019;-42
2021/09/15 11:10:34;;;;;;;27.30;22.10;;;22.60;99.90;;;;;;5097647;28;20024;-40
2021/09/15 11:13:05;;;;;;;25.90;22.02;;;22.70;99.90;;;;;;5108780;28;20020;-41
2021/09/15 11:15:36;;;;;;;23.83;20.35;;;22.80;99.90;;;;;;5097952;28;20127;-41
2021/09/15 11:18:03;;;;;;;25.52;21.42;;;22.80;99.90;;;;;;5109520;28;20101;-45
2021/09/15 11:20:32;;;;;;;25.13;19.88;;;22.80;99.90;;;;;;5111024;28;20019;-41
2021/09/15 11:23:06;;;;;;;20.80;17.30;;;22.80;99.90;;;;;;5109102;28;20424;-42
2021/09/15 11:25:32;;;;;;;19.90;16.70;;;22.90;99.90;;;;;;5111467;28;20494;-38
2021/09/15 11:28:04;;;;;;;16.98;15.18;;;23.00;99.90;;;;;;5109939;28;20024;-41
2021/09/15 11:30:33;;;;;;;18.95;16.83;;;23.10;99.90;;;;;;5110285;28;20027;-43
2021/09/15 11:32:59;;;;;;;16.63;14.93;;;23.10;99.90;;;;;;5108988;28;20016;-45
2021/09/15 11:35:24;;;;;;;15.88;13.60;;;23.20;99.90;;;;;;5108837;28;20547;-43
2021/09/15 11:37:50;;;;;;;18.17;16.35;;;23.30;99.90;;;;;;5108906;28;20382;-42
2021/09/15 11:40:16;;;;;;;16.90;15.02;;;23.40;99.90;;;;;;5110688;28;20028;-41
2021/09/15 11:42:42;;;;;;;16.02;14.32;;;23.50;99.90;;;;;;5109797;28;20038;-42
2021/09/15 11:45:14;;;;;;;22.35;19.90;;;23.50;99.90;;;;;;5109877;28;20028;-42
2021/09/15 11:47:45;;;;;;;21.60;18.83;;;23.40;99.90;;;;;;5110240;28;20027;-42
2021/09/15 11:50:26;;;;;;;24.33;21.83;;;23.30;99.90;;;;;;5110276;28;20081;-41
2021/09/15 11:53:06;;;;;;;24.73;22.23;;;23.20;99.90;;;;;;5090445;28;20080;-39
2021/09/15 11:55:34;;;;;;;25.00;22.50;;;23.10;99.90;;;;;;5110598;28;20051;-40
2021/09/15 11:58:01;;;;;;;29.88;26.77;;;23.00;99.90;;;;;;5110020;28;20034;-40
2021/09/15 12:00:28;;;;;;;30.08;26.98;;;22.90;99.90;;;;;;5109714;28;20058;-39
2021/09/15 12:02:56;;;;;;;27.30;24.40;;;22.80;99.90;;;;;;5109793;28;20027;-42
2021/09/15 12:05:22;;;;;;;29.23;24.77;;;22.80;99.90;;;;;;5110374;28;20031;-42
2021/09/15 12:07:48;;;;;;;28.73;25.67;;;22.70;99.90;;;;;;5110174;28;20069;-42
2021/09/15 12:10:14;;;;;;;25.50;22.98;;;22.70;99.90;;;;;;5109821;28;20019;-42
2021/09/15 12:12:41;;;;;;;23.05;20.83;;;22.60;99.90;;;;;;5109787;28;20102;-39
2021/09/15 12:15:07;;;;;;;19.00;16.90;;;22.50;99.90;;;;;;5109540;28;20044;-42
2021/09/15 12:17:34;;;;;;;15.85;14.30;;;22.50;99.90;;;;;;5107919;28;20068;-39
2021/09/15 12:20:03;;;;;;;15.10;13.70;;;22.60;99.90;;;;;;5108936;28;20437;-41
2021/09/15 12:22:31;;;;;;;12.48;11.27;;;22.60;99.90;;;;;;5097441;28;20383;-41
2021/09/15 12:25:00;;;;;;;11.90;10.48;;;22.70;99.90;;;;;;5083934;28;20036;-42
2021/09/15 12:27:26;;;;;;;10.32;9.30;;;22.80;99.90;;;;;;5089141;28;20037;-42
2021/09/15 12:30:09;;;;;;;9.40;8.40;;;22.80;99.90;;;;;;5079694;28;20028;-42
2021/09/15 12:32:38;;;;;;;9.13;6.95;;;22.90;99.90;;;;;;5095313;28;20099;-41
2021/09/15 12:35:34;;;;;;;6.47;5.88;;;22.90;99.90;;;;;;5108393;28;20085;-41
2021/09/15 12:38:17;;;;;;;7.63;6.82;;;22.90;99.90;;;;;;5106061;28;20035;-41
2021/09/15 12:40:43;;;;;;;6.45;5.90;;;22.90;99.90;;;;;;5069900;28;20020;-40
2021/09/15 12:43:13;;;;;;;7.38;6.68;;;22.90;99.90;;;;;;5098941;28;20034;-43
2021/09/15 12:45:38;;;;;;;6.63;5.93;;;22.80;99.90;;;;;;5081675;28;20028;-42
2021/09/15 12:48:13;;;;;;;5.22;4.72;;;22.70;99.90;;;;;;5106908;28;20039;-38